Montreal / Les Cèdres Airport

CSS3 · Quebec, 加拿大

使用的METAR站距离机场16 NM。
罗盘
风向 的 风向 090° Montreal / Les Cèdres Airport 7/25
风: 13 kt, 4 beaufort

11 kt

7 kt
改变
0 ft 6.000 12.000 18.000 24.000 30.000
Cloud Cloud
FEW 18.000
Cloud Cloud Cloud Cloud
SCT 25.000
METAR CYUL 270300Z 09013KT 15SM FEW180 SCT250 21/10 A2992 RMK AC1CI3 SLP132 DENSITY ALT 900FT

METAR Montreal / Les Cèdres Airport - CSS3

Montreal / Les Cèdres Airport是,加拿大中的小机场。 该机场位于纬度45,34759和经度-74,07694。 该机场有一条跑道: 7/25. 该机场的伪ICAO代码为CSS3。 机场在Montreal FIR中。

该航空气象观测是针对蒙特利尔皮埃尔·埃利奥特·特鲁多国际机场在2024年5月26日 23:00, 当地时间进行的。

机场观察

风向为090°,速度为13 kt。

可见度为15 mi。

有几云在18.000 ft的高度 和 疏云,零星散落的云朵在25.000 ft的高度。 没有观察到天花板。

温度和风寒是21 °C。 露点为10 °C,相对湿度为50%。 海平面上的气压为29,92 inHg (QNH)。

白天

今天,太阳从05:14升起,在20:32降落。 这适用于Montreal / Les Cèdres Airport,世界夏令时可能有所不同。 当地时间与世界标准时间之间的时差为-4 小时。 夏令时目前正在进行中。

公司介绍

我们没有关于这个机场的公司信息。

体会

到Vliegles.nl去找飞行课程,跳伞和其他飞行体验。 浏览页面,了解Montreal / Les Cèdres Airport附近所有可用的活动。 你也可以使用搜索功能来寻找你所在地附近的特定飞行课程、跳伞或其他飞行体验。

跑道

Id 标题 侧风 逆风 侧风 %
7/25 060°-240° 7 kt 11 kt 50 %

逆风成分最大的方向会被突出显示,并用于横风计算。 这并不一定意味着这个方向在使用。

乌云

18.000 ft FEW 几云
25.000 ft SCT 疏云,零星散落的云朵

温度 & 天气

温度 21 °C
露点 10 °C
相对湿度 50%
Kp-index 0 (0-9)

评论

SLP132海平面压力为29,92 inHg (29,92 inHg)
AC1CI3 DENSITY ALT 900FT

白天

日出
05:12 (5:29)
中午
12:52
日落
20:32

小工具

你想在你的网站上有一个关于Montreal / Les Cèdres Airport的当前航空天气(METAR)的小部件吗?

显示HTML代码
报告变更